Time;durP1;ratioP1;P1;durP2;ratioP2;P2;SDS_P1;SDS_P2;PMS_P1;PMS_P2;Temp;Humidity;BMP_temperature;BMP_pressure;BME280_temperature;BME280_humidity;BME280_pressure;Samples;Min_cycle;Max_cycle;Signal;HPM_P1;HPM_P2
2023/05/05 00:01:08;;;;;;;6.70;2.27;;;;;;;;;;5008449;28;20469;-64
2023/05/05 00:03:35;;;;;;;4.43;2.13;;;;;;;;;;5008104;28;20215;-64
2023/05/05 00:06:02;;;;;;;4.07;2.50;;;;;;;;;;5008509;28;20956;-64
2023/05/05 00:08:29;;;;;;;5.60;2.60;;;;;;;;;;5009746;28;20180;-64
2023/05/05 00:10:56;;;;;;;6.90;2.70;;;;;;;;;;5012730;28;20275;-64
2023/05/05 00:13:23;;;;;;;4.83;2.50;;;;;;;;;;5012079;28;20250;-64
2023/05/05 00:15:50;;;;;;;5.33;2.90;;;;;;;;;;5012129;28;20196;-64
2023/05/05 00:18:17;;;;;;;5.37;3.20;;;;;;;;;;5013097;28;20954;-65
2023/05/05 00:20:45;;;;;;;6.83;3.03;;;;;;;;;;5012021;28;20961;-65
2023/05/05 00:23:12;;;;;;;6.97;3.30;;;;;;;;;;5011909;28;20220;-65
2023/05/05 00:25:39;;;;;;;7.50;2.90;;;;;;;;;;5011834;28;20282;-64
2023/05/05 00:28:06;;;;;;;4.20;2.97;;;;;;;;;;5012205;28;20246;-64
2023/05/05 00:30:33;;;;;;;7.27;3.50;;;;;;;;;;5011924;28;20234;-65
2023/05/05 00:33:00;;;;;;;6.73;3.40;;;;;;;;;;5012154;28;20207;-64
2023/05/05 00:35:27;;;;;;;6.93;3.70;;;;;;;;;;4993955;28;20291;-64
2023/05/05 00:37:54;;;;;;;9.93;3.27;;;;;;;;;;5011638;28;20202;-64
2023/05/05 00:40:21;;;;;;;5.47;3.00;;;;;;;;;;5002727;28;20188;-64
2023/05/05 00:42:49;;;;;;;6.00;3.13;;;;;;;;;;5014027;28;20570;-64
2023/05/05 00:45:16;;;;;;;4.43;2.50;;;;;;;;;;5031866;28;20215;-65
2023/05/05 00:47:45;;;;;;;5.97;2.60;;;;;;;;;;5031355;28;20190;-64
2023/05/05 00:50:13;;;;;;;4.90;2.30;;;;;;;;;;5031380;28;20199;-65
2023/05/05 00:52:39;;;;;;;5.03;2.47;;;;;;;;;;5031215;28;20188;-64
2023/05/05 00:55:06;;;;;;;5.07;2.27;;;;;;;;;;5012802;28;20191;-64
2023/05/05 00:57:33;;;;;;;5.67;2.30;;;;;;;;;;5013796;28;20702;-64
2023/05/05 01:00:00;;;;;;;5.63;2.27;;;;;;;;;;5013815;28;20234;-64
2023/05/05 01:02:26;;;;;;;5.23;2.53;;;;;;;;;;5031032;28;20199;-64
2023/05/05 01:04:54;;;;;;;4.97;2.80;;;;;;;;;;5031274;28;20215;-64
2023/05/05 01:07:37;;;;;;;11.07;2.77;;;;;;;;;;5013044;28;20203;-64
2023/05/05 01:10:14;;;;;;;4.07;2.23;;;;;;;;;;5026955;28;20270;-65
2023/05/05 01:12:49;;;;;;;5.27;2.40;;;;;;;;;;4993807;28;20192;-64
2023/05/05 01:15:20;;;;;;;6.67;2.30;;;;;;;;;;4978015;28;20200;-65
2023/05/05 01:17:54;;;;;;;6.13;2.30;;;;;;;;;;5011080;28;20200;-65
2023/05/05 01:20:27;;;;;;;6.33;1.97;;;;;;;;;;5010515;28;20282;-65
2023/05/05 01:22:59;;;;;;;3.93;2.07;;;;;;;;;;5010867;28;20698;-65
2023/05/05 01:25:29;;;;;;;4.80;1.90;;;;;;;;;;5010772;28;20227;-65
2023/05/05 01:28:14;;;;;;;5.37;2.30;;;;;;;;;;4997751;28;20199;-65
2023/05/05 01:30:53;;;;;;;3.10;1.73;;;;;;;;;;5030589;28;20968;-65
2023/05/05 01:33:22;;;;;;;4.30;1.90;;;;;;;;;;5012987;28;20222;-65
2023/05/05 01:35:55;;;;;;;4.40;2.13;;;;;;;;;;5030403;28;20172;-64
2023/05/05 01:38:34;;;;;;;5.83;1.97;;;;;;;;;;5012761;28;20285;-64
2023/05/05 01:41:06;;;;;;;4.77;1.83;;;;;;;;;;4996316;28;20198;-64
2023/05/05 02:15:40;;;;;;;3.73;1.53;;;;;;;;;;5010044;28;20441;-64
2023/05/05 02:18:08;;;;;;;3.20;1.60;;;;;;;;;;4992333;28;20689;-65
2023/05/05 02:20:36;;;;;;;4.43;1.90;;;;;;;;;;4992350;28;21060;-65
2023/05/05 02:23:04;;;;;;;3.93;1.70;;;;;;;;;;5009199;28;20469;-65
2023/05/05 02:25:39;;;;;;;4.97;1.83;;;;;;;;;;5009919;28;20439;-64
2023/05/05 02:28:07;;;;;;;3.23;1.33;;;;;;;;;;4992210;28;20561;-65
2023/05/05 02:30:33;;;;;;;5.10;1.73;;;;;;;;;;4991748;28;20497;-65
2023/05/05 02:33:03;;;;;;;3.00;1.50;;;;;;;;;;4992133;28;20435;-65
2023/05/05 02:35:40;;;;;;;2.70;1.60;;;;;;;;;;4976012;28;20258;-64
2023/05/05 02:38:12;;;;;;;4.60;1.80;;;;;;;;;;4991925;28;20455;-65
2023/05/05 02:40:41;;;;;;;6.23;1.83;;;;;;;;;;5003096;28;20192;-65
2023/05/05 02:43:14;;;;;;;3.57;1.80;;;;;;;;;;4996038;28;20234;-65
2023/05/05 02:45:41;;;;;;;4.57;1.83;;;;;;;;;;5011350;28;20413;-65
2023/05/05 02:48:09;;;;;;;5.47;1.60;;;;;;;;;;5011489;28;20206;-65
2023/05/05 02:50:37;;;;;;;5.17;1.73;;;;;;;;;;5011278;28;20446;-65
2023/05/05 02:53:30;;;;;;;5.00;1.80;;;;;;;;;;5025816;28;20956;-65
2023/05/05 02:56:01;;;;;;;2.70;1.70;;;;;;;;;;4995406;28;20488;-66
2023/05/05 02:58:39;;;;;;;4.20;1.40;;;;;;;;;;5011373;28;20226;-65
2023/05/05 03:01:28;;;;;;;6.60;1.70;;;;;;;;;;5011036;28;20440;-65
2023/05/05 03:04:00;;;;;;;3.37;1.87;;;;;;;;;;5028839;28;20485;-65
2023/05/05 03:06:28;;;;;;;5.43;2.07;;;;;;;;;;5008696;28;20442;-68
2023/05/05 03:08:57;;;;;;;5.40;1.70;;;;;;;;;;4998978;28;20458;-65
2023/05/05 03:11:26;;;;;;;3.47;1.47;;;;;;;;;;4972870;28;20212;-66
2023/05/05 03:14:01;;;;;;;5.97;1.40;;;;;;;;;;5007443;28;20230;-66
2023/05/05 03:16:28;;;;;;;3.87;1.40;;;;;;;;;;5025993;28;20590;-67
2023/05/05 03:18:55;;;;;;;4.60;1.53;;;;;;;;;;5008279;28;20452;-67
2023/05/05 03:21:22;;;;;;;2.40;1.33;;;;;;;;;;4988606;28;20513;-67
2023/05/05 03:23:49;;;;;;;3.60;1.50;;;;;;;;;;5020380;28;20543;-66
2023/05/05 03:26:19;;;;;;;5.13;1.57;;;;;;;;;;5008063;28;20273;-66
2023/05/05 03:28:46;;;;;;;2.80;1.40;;;;;;;;;;5007692;28;20445;-67
2023/05/05 03:31:32;;;;;;;4.10;1.30;;;;;;;;;;5014159;28;20454;-65
2023/05/05 03:34:00;;;;;;;2.37;1.33;;;;;;;;;;5007728;28;20454;-66
2023/05/05 03:36:34;;;;;;;2.93;1.77;;;;;;;;;;4992846;28;20442;-66
2023/05/05 03:39:06;;;;;;;3.57;1.23;;;;;;;;;;5008167;28;20257;-66
2023/05/05 03:41:33;;;;;;;3.20;1.27;;;;;;;;;;5018270;28;20449;-66
2023/05/05 03:44:00;;;;;;;4.07;1.30;;;;;;;;;;5006930;28;20561;-65
2023/05/05 03:46:30;;;;;;;3.90;1.40;;;;;;;;;;5007365;28;20468;-65
2023/05/05 03:48:57;;;;;;;3.83;1.40;;;;;;;;;;5007148;28;20446;-67
2023/05/05 03:51:25;;;;;;;3.87;1.50;;;;;;;;;;4987246;28;20943;-65
2023/05/05 03:53:53;;;;;;;2.83;1.47;;;;;;;;;;5016042;28;20866;-66
2023/05/05 03:56:20;;;;;;;1.70;1.20;;;;;;;;;;5007039;28;20941;-65
2023/05/05 03:58:47;;;;;;;4.67;1.20;;;;;;;;;;5007032;28;20465;-66
2023/05/05 04:01:14;;;;;;;2.63;1.30;;;;;;;;;;5023419;28;20485;-67
2023/05/05 04:03:41;;;;;;;3.27;1.63;;;;;;;;;;5006883;28;20517;-66
2023/05/05 04:06:08;;;;;;;5.07;1.50;;;;;;;;;;5007535;28;20852;-66
2023/05/05 04:08:35;;;;;;;2.80;1.30;;;;;;;;;;5003152;28;21065;-66
2023/05/05 04:11:02;;;;;;;3.17;1.20;;;;;;;;;;5006711;28;20198;-68
2023/05/05 04:13:31;;;;;;;3.53;1.40;;;;;;;;;;5024911;28;20195;-68
2023/05/05 04:15:58;;;;;;;3.13;1.20;;;;;;;;;;5007772;28;21291;-68
2023/05/05 04:18:25;;;;;;;3.63;1.30;;;;;;;;;;5023918;28;20500;-68
2023/05/05 04:20:52;;;;;;;3.47;1.20;;;;;;;;;;5024895;28;20478;-65
2023/05/05 04:23:20;;;;;;;3.07;1.10;;;;;;;;;;5006998;28;20474;-65
2023/05/05 04:25:48;;;;;;;2.67;1.20;;;;;;;;;;5007367;28;20210;-66
2023/05/05 04:28:15;;;;;;;3.40;1.10;;;;;;;;;;5007543;28;20231;-66
2023/05/05 04:30:42;;;;;;;8.47;1.87;;;;;;;;;;5006866;28;21024;-66
2023/05/05 04:33:09;;;;;;;3.37;1.40;;;;;;;;;;5005989;28;20201;-66
2023/05/05 04:35:36;;;;;;;4.87;1.30;;;;;;;;;;5007041;28;20180;-66
2023/05/05 04:38:04;;;;;;;3.60;1.50;;;;;;;;;;5006657;28;20469;-66
2023/05/05 04:40:31;;;;;;;4.83;1.53;;;;;;;;;;5023460;28;20196;-66
2023/05/05 04:42:58;;;;;;;2.00;1.27;;;;;;;;;;5006819;28;20195;-66
2023/05/05 04:45:26;;;;;;;2.93;1.27;;;;;;;;;;5007116;28;20198;-66
2023/05/05 04:47:53;;;;;;;2.90;1.30;;;;;;;;;;5007057;28;20446;-67
2023/05/05 04:50:20;;;;;;;5.30;1.50;;;;;;;;;;5017743;28;20434;-65
2023/05/05 04:52:48;;;;;;;6.73;1.80;;;;;;;;;;5006860;28;20282;-66
2023/05/05 04:55:18;;;;;;;3.50;1.40;;;;;;;;;;5009811;28;20210;-65
2023/05/05 04:57:44;;;;;;;3.53;1.10;;;;;;;;;;5010337;28;20223;-67
2023/05/05 05:00:12;;;;;;;2.30;1.20;;;;;;;;;;5028413;28;20257;-67
2023/05/05 05:02:38;;;;;;;3.50;1.43;;;;;;;;;;5028490;28;20218;-67
2023/05/05 05:05:08;;;;;;;3.40;1.50;;;;;;;;;;5010436;28;20234;-65
2023/05/05 05:07:35;;;;;;;3.70;1.50;;;;;;;;;;5000559;28;20228;-66
2023/05/05 05:10:02;;;;;;;5.73;1.50;;;;;;;;;;5009655;28;20416;-66
2023/05/05 05:12:29;;;;;;;4.43;1.50;;;;;;;;;;5010833;28;20654;-65
2023/05/05 05:14:56;;;;;;;3.10;1.50;;;;;;;;;;5010845;28;20203;-65
2023/05/05 05:17:23;;;;;;;5.43;1.53;;;;;;;;;;5008977;28;20249;-65
2023/05/05 05:19:51;;;;;;;5.30;1.67;;;;;;;;;;5004513;28;20250;-67
2023/05/05 05:22:18;;;;;;;6.67;1.50;;;;;;;;;;5010845;28;20318;-65
2023/05/05 05:24:51;;;;;;;3.60;1.63;;;;;;;;;;5006054;28;20223;-68
2023/05/05 05:27:19;;;;;;;2.30;1.30;;;;;;;;;;5004791;28;20696;-68
2023/05/05 05:29:48;;;;;;;8.27;1.80;;;;;;;;;;5006966;28;20203;-67
2023/05/05 05:32:15;;;;;;;2.03;1.10;;;;;;;;;;5008678;28;20698;-65
2023/05/05 05:34:43;;;;;;;6.03;1.87;;;;;;;;;;4999703;28;20629;-66
2023/05/05 05:37:11;;;;;;;1.50;1.30;;;;;;;;;;5008713;28;20207;-65
2023/05/05 05:39:38;;;;;;;6.13;1.50;;;;;;;;;;5009767;28;20315;-66
2023/05/05 05:42:08;;;;;;;3.63;1.57;;;;;;;;;;5023695;28;20188;-64
2023/05/05 05:44:34;;;;;;;2.70;1.47;;;;;;;;;;5026507;28;20215;-65
2023/05/05 05:47:01;;;;;;;2.53;1.40;;;;;;;;;;5026871;28;20227;-65
2023/05/05 05:49:29;;;;;;;5.30;1.43;;;;;;;;;;5008249;28;20796;-66
2023/05/05 05:51:56;;;;;;;4.27;1.73;;;;;;;;;;5008815;28;20204;-66
2023/05/05 05:54:23;;;;;;;4.53;1.30;;;;;;;;;;5008013;28;20554;-65
2023/05/05 05:56:50;;;;;;;3.73;1.47;;;;;;;;;;5003999;28;20219;-64
2023/05/05 05:59:17;;;;;;;3.43;1.50;;;;;;;;;;5010358;28;20191;-64
2023/05/05 06:01:44;;;;;;;2.97;1.43;;;;;;;;;;5011664;28;20211;-64
2023/05/05 06:04:12;;;;;;;4.70;1.70;;;;;;;;;;5009323;28;20218;-64
2023/05/05 06:06:39;;;;;;;6.73;1.70;;;;;;;;;;5008034;28;20234;-65
2023/05/05 06:09:06;;;;;;;3.50;1.50;;;;;;;;;;5029094;28;20636;-67
2023/05/05 06:11:33;;;;;;;3.27;1.63;;;;;;;;;;5009618;28;20203;-66
2023/05/05 06:14:03;;;;;;;5.10;1.50;;;;;;;;;;5029410;28;20282;-66
2023/05/05 06:16:31;;;;;;;4.20;1.27;;;;;;;;;;5005827;28;20196;-64
2023/05/05 06:19:09;;;;;;;8.97;1.50;;;;;;;;;;5002240;28;20190;-65
2023/05/05 06:21:37;;;;;;;2.40;1.30;;;;;;;;;;4961259;28;20228;-66
2023/05/05 06:24:05;;;;;;;3.23;1.30;;;;;;;;;;4988622;28;20239;-65
2023/05/05 06:26:33;;;;;;;4.73;1.50;;;;;;;;;;4988202;28;20207;-65
2023/05/05 06:29:00;;;;;;;3.57;1.40;;;;;;;;;;5004988;28;20279;-66
2023/05/05 06:31:27;;;;;;;4.83;1.80;;;;;;;;;;5004828;28;20246;-65
2023/05/05 06:33:54;;;;;;;5.63;1.50;;;;;;;;;;5005084;28;20200;-64
2023/05/05 06:36:21;;;;;;;7.13;1.70;;;;;;;;;;5004232;28;20247;-65
2023/05/05 06:38:49;;;;;;;4.80;1.73;;;;;;;;;;5006057;28;20274;-66
2023/05/05 06:41:16;;;;;;;5.27;1.53;;;;;;;;;;5005110;28;20765;-66
2023/05/05 06:43:43;;;;;;;2.90;1.40;;;;;;;;;;5005422;28;20238;-65
2023/05/05 06:46:12;;;;;;;3.70;1.40;;;;;;;;;;5005610;28;20219;-66
2023/05/05 06:48:38;;;;;;;4.00;1.33;;;;;;;;;;5004130;28;20219;-66
2023/05/05 06:51:05;;;;;;;4.27;1.50;;;;;;;;;;5006010;28;20207;-67
2023/05/05 06:53:33;;;;;;;2.30;1.30;;;;;;;;;;4994347;28;20643;-66
2023/05/05 06:56:00;;;;;;;3.63;1.37;;;;;;;;;;5005492;28;20200;-65
2023/05/05 06:58:27;;;;;;;3.50;1.40;;;;;;;;;;5006232;28;20590;-65
2023/05/05 07:00:54;;;;;;;3.60;1.43;;;;;;;;;;5003867;28;20220;-65
2023/05/05 07:03:20;;;;;;;2.97;1.50;;;;;;;;;;5006674;28;20209;-65
2023/05/05 07:05:47;;;;;;;2.53;1.47;;;;;;;;;;5000927;28;20594;-64
2023/05/05 07:08:14;;;;;;;4.73;1.73;;;;;;;;;;4979806;28;20271;-65
2023/05/05 07:10:41;;;;;;;2.90;1.43;;;;;;;;;;4995334;28;20250;-66
2023/05/05 07:13:08;;;;;;;14.00;2.63;;;;;;;;;;5003142;28;20725;-66
2023/05/05 07:15:36;;;;;;;2.60;1.40;;;;;;;;;;4988546;28;20798;-64
2023/05/05 07:18:03;;;;;;;4.03;1.73;;;;;;;;;;5006778;28;20705;-65
2023/05/05 07:20:31;;;;;;;2.20;1.60;;;;;;;;;;5012710;28;20239;-65
2023/05/05 07:22:57;;;;;;;2.80;1.50;;;;;;;;;;5025072;28;20191;-64
2023/05/05 07:25:25;;;;;;;4.57;1.80;;;;;;;;;;5023860;28;20686;-65
2023/05/05 07:27:52;;;;;;;2.23;1.60;;;;;;;;;;5025460;28;20203;-65
2023/05/05 07:30:20;;;;;;;2.53;1.90;;;;;;;;;;5015023;28;20237;-64
2023/05/05 07:32:47;;;;;;;4.00;2.10;;;;;;;;;;5025497;28;20180;-64
2023/05/05 07:35:14;;;;;;;3.80;1.60;;;;;;;;;;5008179;28;20218;-64
2023/05/05 07:37:41;;;;;;;3.57;1.60;;;;;;;;;;5025511;28;20199;-65
2023/05/05 07:40:08;;;;;;;4.77;1.43;;;;;;;;;;5024473;28;20187;-64
2023/05/05 07:42:36;;;;;;;5.00;2.07;;;;;;;;;;5025574;28;20282;-65
2023/05/05 07:45:04;;;;;;;2.73;1.70;;;;;;;;;;5024414;28;20709;-65
2023/05/05 07:47:30;;;;;;;3.10;1.63;;;;;;;;;;5024800;28;20206;-66
2023/05/05 07:49:57;;;;;;;2.83;1.60;;;;;;;;;;5006338;28;20603;-66
2023/05/05 07:52:27;;;;;;;3.00;1.90;;;;;;;;;;5025052;28;20191;-65
2023/05/05 07:55:13;;;;;;;4.87;1.90;;;;;;;;;;5023301;28;20195;-66
2023/05/05 07:57:40;;;;;;;1.77;1.43;;;;;;;;;;5025279;28;20755;-66
2023/05/05 08:00:09;;;;;;;5.53;1.87;;;;;;;;;;5006511;28;20206;-65
2023/05/05 08:02:40;;;;;;;3.87;1.90;;;;;;;;;;5020925;28;20273;-65
2023/05/05 08:05:11;;;;;;;4.87;1.70;;;;;;;;;;5024634;28;20686;-66
2023/05/05 08:07:39;;;;;;;4.67;1.87;;;;;;;;;;5013208;28;20230;-66
2023/05/05 08:10:09;;;;;;;2.00;1.43;;;;;;;;;;5024324;28;20195;-65
2023/05/05 08:12:36;;;;;;;11.07;2.70;;;;;;;;;;5024725;28;20257;-65
2023/05/05 08:15:03;;;;;;;3.20;1.40;;;;;;;;;;5023004;28;20195;-66
2023/05/05 08:17:42;;;;;;;3.40;1.77;;;;;;;;;;5022948;28;20184;-65
2023/05/05 08:20:11;;;;;;;4.53;2.20;;;;;;;;;;5023625;28;20710;-67
2023/05/05 08:22:37;;;;;;;6.17;1.80;;;;;;;;;;5025465;28;20187;-66
2023/05/05 08:25:04;;;;;;;4.97;1.90;;;;;;;;;;5024541;28;20702;-64
2023/05/05 08:27:34;;;;;;;4.97;2.30;;;;;;;;;;5025163;28;20195;-68
2023/05/05 08:30:01;;;;;;;3.60;1.50;;;;;;;;;;5024673;28;20270;-68
2023/05/05 08:32:28;;;;;;;4.90;2.50;;;;;;;;;;5029174;28;20245;-65
2023/05/05 08:34:57;;;;;;;5.10;2.40;;;;;;;;;;5027810;28;20183;-65
2023/05/05 08:37:24;;;;;;;8.53;2.83;;;;;;;;;;5027637;28;20265;-66
2023/05/05 08:39:50;;;;;;;4.50;1.70;;;;;;;;;;5020239;28;20751;-66
2023/05/05 08:42:17;;;;;;;5.30;1.73;;;;;;;;;;5024632;28;20202;-65
2023/05/05 08:45:03;;;;;;;5.97;1.87;;;;;;;;;;5030252;28;20207;-66
2023/05/05 08:47:30;;;;;;;3.30;1.60;;;;;;;;;;5032647;28;20990;-66
2023/05/05 08:49:57;;;;;;;3.77;1.60;;;;;;;;;;5028166;28;20254;-64
2023/05/05 08:52:24;;;;;;;5.60;1.60;;;;;;;;;;5037858;28;20285;-64
2023/05/05 08:55:05;;;;;;;3.67;1.67;;;;;;;;;;5028328;28;20287;-63
2023/05/05 08:57:39;;;;;;;2.53;1.40;;;;;;;;;;5025281;28;20195;-66
2023/05/05 09:00:08;;;;;;;6.83;1.90;;;;;;;;;;5014177;28;20963;-64
2023/05/05 09:02:35;;;;;;;6.13;2.30;;;;;;;;;;5041090;28;20592;-69
2023/05/05 09:05:04;;;;;;;6.13;1.67;;;;;;;;;;5011575;28;20215;-72
2023/05/05 09:07:32;;;;;;;4.23;1.70;;;;;;;;;;5013109;28;20242;-68
2023/05/05 09:09:59;;;;;;;6.70;1.80;;;;;;;;;;5031140;28;20196;-66
2023/05/05 09:12:30;;;;;;;2.40;1.23;;;;;;;;;;5022878;28;20195;-68
2023/05/05 09:14:57;;;;;;;4.60;1.60;;;;;;;;;;5029516;28;20195;-66
2023/05/05 09:17:25;;;;;;;7.53;1.50;;;;;;;;;;5047846;28;20186;-66
2023/05/05 09:20:03;;;;;;;2.17;1.40;;;;;;;;;;5028198;28;20193;-67
2023/05/05 09:22:34;;;;;;;3.30;1.43;;;;;;;;;;5018167;28;20223;-67
2023/05/05 09:25:01;;;;;;;2.73;1.33;;;;;;;;;;5010485;28;20219;-67
2023/05/05 09:27:28;;;;;;;2.63;1.30;;;;;;;;;;5028486;28;20278;-66
2023/05/05 09:29:58;;;;;;;3.10;1.37;;;;;;;;;;5034256;28;20253;-68
2023/05/05 09:32:25;;;;;;;2.83;1.33;;;;;;;;;;5012895;28;20555;-69
2023/05/05 09:34:58;;;;;;;2.87;1.20;;;;;;;;;;5028192;28;20675;-69
2023/05/05 09:37:28;;;;;;;3.23;1.47;;;;;;;;;;5019941;28;20205;-66
2023/05/05 09:39:59;;;;;;;4.73;1.40;;;;;;;;;;5018992;28;20326;-68
2023/05/05 09:42:27;;;;;;;4.67;1.47;;;;;;;;;;5019585;28;20218;-65
2023/05/05 09:44:55;;;;;;;4.07;1.57;;;;;;;;;;5025766;28;20295;-67
2023/05/05 09:47:35;;;;;;;5.17;1.20;;;;;;;;;;5035833;28;20238;-69
2023/05/05 09:50:03;;;;;;;4.13;1.23;;;;;;;;;;5024618;28;20959;-71
2023/05/05 09:52:30;;;;;;;2.13;1.10;;;;;;;;;;5015249;28;20254;-73
2023/05/05 09:54:58;;;;;;;6.43;1.50;;;;;;;;;;5027841;28;20286;-68
2023/05/05 09:57:28;;;;;;;2.57;1.10;;;;;;;;;;5044185;28;22286;-70
2023/05/05 09:59:57;;;;;;;7.10;1.60;;;;;;;;;;5028329;28;20184;-73
2023/05/05 10:02:33;;;;;;;5.03;1.23;;;;;;;;;;5030499;28;20278;-73
2023/05/05 10:05:19;;;;;;;3.00;1.30;;;;;;;;;;4997160;28;20218;-73
2023/05/05 10:07:46;;;;;;;3.70;1.17;;;;;;;;;;5020709;28;20228;-73
2023/05/05 10:10:14;;;;;;;5.37;1.50;;;;;;;;;;4991071;28;20191;-73
2023/05/05 10:12:41;;;;;;;3.43;1.17;;;;;;;;;;5017437;28;20206;-69
2023/05/05 10:15:09;;;;;;;3.73;1.37;;;;;;;;;;5011817;28;20201;-73
2023/05/05 10:17:36;;;;;;;2.80;1.23;;;;;;;;;;5046989;28;20186;-68
2023/05/05 10:20:04;;;;;;;2.77;0.90;;;;;;;;;;5029833;28;20230;-68
2023/05/05 10:22:34;;;;;;;2.67;1.20;;;;;;;;;;5033825;28;20195;-69
2023/05/05 10:25:02;;;;;;;2.50;0.93;;;;;;;;;;5025770;28;20215;-76
2023/05/05 10:27:33;;;;;;;3.53;1.10;;;;;;;;;;5032241;28;20195;-69
2023/05/05 10:30:03;;;;;;;3.17;1.23;;;;;;;;;;5031711;28;20191;-70
2023/05/05 10:32:30;;;;;;;3.87;1.00;;;;;;;;;;5024544;28;20192;-67
2023/05/05 10:35:23;;;;;;;4.33;1.30;;;;;;;;;;5027924;28;21021;-76
2023/05/05 10:37:50;;;;;;;4.00;1.17;;;;;;;;;;5034006;28;20187;-68
2023/05/05 10:40:17;;;;;;;1.80;1.10;;;;;;;;;;5018712;28;20233;-69
2023/05/05 10:42:43;;;;;;;5.70;1.30;;;;;;;;;;5007307;28;20288;-69
2023/05/05 10:45:12;;;;;;;5.43;1.50;;;;;;;;;;5030368;28;20207;-73
2023/05/05 10:47:43;;;;;;;2.87;1.07;;;;;;;;;;5031547;28;20191;-75
2023/05/05 10:50:13;;;;;;;3.50;1.20;;;;;;;;;;5014610;28;20195;-69
2023/05/05 10:52:54;;;;;;;1.20;1.00;;;;;;;;;;5010970;28;20252;-72
2023/05/05 10:55:27;;;;;;;3.80;1.10;;;;;;;;;;5013075;28;20332;-70
2023/05/05 10:57:55;;;;;;;1.83;0.80;;;;;;;;;;4989674;28;20239;-73
2023/05/05 11:00:37;;;;;;;3.40;1.20;;;;;;;;;;5012053;28;20810;-66
2023/05/05 11:03:17;;;;;;;6.87;1.67;;;;;;;;;;5041173;28;20186;-74
2023/05/05 11:06:02;;;;;;;2.97;1.17;;;;;;;;;;5030971;28;20275;-73
2023/05/05 11:08:39;;;;;;;3.20;1.00;;;;;;;;;;5016473;28;20281;-74
2023/05/05 11:11:07;;;;;;;2.20;1.10;;;;;;;;;;5013089;28;20328;-73
2023/05/05 11:13:33;;;;;;;4.70;1.30;;;;;;;;;;5011333;28;20313;-74
2023/05/05 11:16:01;;;;;;;4.20;1.53;;;;;;;;;;5012317;28;20199;-72
2023/05/05 11:18:29;;;;;;;4.30;1.27;;;;;;;;;;5026717;28;20194;-66
2023/05/05 11:20:57;;;;;;;5.37;1.20;;;;;;;;;;5029871;28;20220;-65
2023/05/05 11:23:24;;;;;;;3.47;1.23;;;;;;;;;;5041014;28;20286;-66
2023/05/05 11:25:52;;;;;;;3.33;0.93;;;;;;;;;;5007258;28;20228;-65
2023/05/05 11:28:23;;;;;;;2.63;1.27;;;;;;;;;;5033756;28;20306;-65
2023/05/05 11:30:57;;;;;;;2.67;1.43;;;;;;;;;;5028929;28;20258;-66
2023/05/05 11:33:37;;;;;;;3.87;1.30;;;;;;;;;;5011377;28;20585;-66
2023/05/05 11:36:04;;;;;;;1.97;0.90;;;;;;;;;;5008367;28;20641;-65
2023/05/05 11:38:51;;;;;;;3.53;1.27;;;;;;;;;;5029720;28;20184;-66
2023/05/05 11:41:24;;;;;;;4.03;1.70;;;;;;;;;;5010795;28;20732;-66
2023/05/05 11:44:07;;;;;;;2.00;0.90;;;;;;;;;;5036773;28;20691;-66
2023/05/05 11:46:34;;;;;;;2.43;1.20;;;;;;;;;;5026277;28;20621;-66
2023/05/05 11:49:02;;;;;;;3.77;1.20;;;;;;;;;;5035618;28;20187;-66
2023/05/05 11:51:29;;;;;;;1.77;1.00;;;;;;;;;;5033054;28;20245;-66
2023/05/05 11:53:56;;;;;;;2.67;1.13;;;;;;;;;;5020039;28;20728;-66
2023/05/05 11:56:25;;;;;;;3.53;1.00;;;;;;;;;;5026683;28;20329;-66
2023/05/05 11:59:10;;;;;;;2.27;1.00;;;;;;;;;;5026306;28;20235;-67
2023/05/05 12:01:40;;;;;;;2.10;1.10;;;;;;;;;;5032613;28;20183;-66
2023/05/05 12:04:08;;;;;;;5.10;1.10;;;;;;;;;;5036297;28;20207;-66
2023/05/05 12:06:35;;;;;;;7.37;1.43;;;;;;;;;;5013284;28;20207;-66
2023/05/05 12:09:04;;;;;;;1.47;0.73;;;;;;;;;;5029570;28;20785;-66
2023/05/05 12:11:31;;;;;;;2.60;1.00;;;;;;;;;;5018825;28;20877;-66
2023/05/05 12:14:08;;;;;;;3.90;1.10;;;;;;;;;;5040846;28;20203;-66
2023/05/05 12:16:35;;;;;;;3.33;1.17;;;;;;;;;;5029951;28;20187;-66
2023/05/05 12:19:04;;;;;;;6.57;1.10;;;;;;;;;;5039683;28;20194;-53
2023/05/05 12:21:31;;;;;;;5.23;1.27;;;;;;;;;;5030057;28;20326;-65
2023/05/05 12:23:59;;;;;;;3.00;0.97;;;;;;;;;;5012925;28;20187;-65
2023/05/05 12:26:27;;;;;;;2.60;1.00;;;;;;;;;;5029645;28;20218;-65
2023/05/05 12:28:58;;;;;;;3.63;1.20;;;;;;;;;;5020794;28;20191;-66
2023/05/05 12:31:38;;;;;;;5.13;1.20;;;;;;;;;;5036913;28;20186;-67
2023/05/05 12:34:06;;;;;;;2.07;0.90;;;;;;;;;;5031241;28;20283;-65
2023/05/05 12:36:33;;;;;;;1.30;0.70;;;;;;;;;;5024427;28;20253;-65
2023/05/05 12:39:00;;;;;;;2.97;1.00;;;;;;;;;;5039989;28;20278;-66
2023/05/05 12:41:27;;;;;;;1.73;0.90;;;;;;;;;;5025259;28;20805;-66
2023/05/05 12:43:55;;;;;;;3.23;1.10;;;;;;;;;;5039953;28;20234;-65
2023/05/05 12:46:23;;;;;;;3.27;0.93;;;;;;;;;;5030134;28;20258;-66
2023/05/05 12:49:04;;;;;;;5.00;0.93;;;;;;;;;;5034006;28;20191;-67
2023/05/05 12:51:31;;;;;;;1.50;0.90;;;;;;;;;;5006881;28;20255;-66
2023/05/05 12:54:05;;;;;;;28.97;3.00;;;;;;;;;;5028867;28;20876;-66
2023/05/05 12:56:39;;;;;;;2.93;0.97;;;;;;;;;;4995199;28;20206;-68
2023/05/05 12:59:06;;;;;;;2.33;0.90;;;;;;;;;;5016875;28;20214;-67
2023/05/05 13:01:34;;;;;;;1.60;0.70;;;;;;;;;;5021935;28;20241;-67
2023/05/05 13:04:05;;;;;;;2.10;0.80;;;;;;;;;;5037159;28;20196;-67
2023/05/05 13:06:32;;;;;;;10.40;1.60;;;;;;;;;;5022683;28;20235;-67
2023/05/05 13:08:59;;;;;;;1.00;0.70;;;;;;;;;;5024961;28;20226;-68
2023/05/05 13:11:25;;;;;;;1.10;0.80;;;;;;;;;;5029203;28;20195;-67
2023/05/05 13:13:52;;;;;;;1.17;0.70;;;;;;;;;;5029838;28;20203;-67
2023/05/05 13:16:23;;;;;;;1.40;0.70;;;;;;;;;;5006901;28;20266;-68
2023/05/05 13:18:50;;;;;;;2.53;0.87;;;;;;;;;;5024658;28;20748;-67
2023/05/05 13:21:17;;;;;;;1.43;0.80;;;;;;;;;;5012652;28;20283;-66
2023/05/05 13:23:45;;;;;;;1.30;0.70;;;;;;;;;;5028554;28;20184;-68
2023/05/05 13:26:12;;;;;;;4.23;1.20;;;;;;;;;;5022903;28;20227;-67
2023/05/05 13:28:39;;;;;;;3.27;0.60;;;;;;;;;;5025779;28;20210;-68
2023/05/05 13:31:07;;;;;;;2.23;0.97;;;;;;;;;;5026467;28;20178;-66
2023/05/05 13:33:34;;;;;;;1.50;0.90;;;;;;;;;;5033177;28;20184;-67
2023/05/05 13:36:01;;;;;;;8.53;1.47;;;;;;;;;;5025387;28;20188;-67
2023/05/05 13:38:31;;;;;;;2.73;1.03;;;;;;;;;;5026509;28;20591;-68
2023/05/05 13:40:59;;;;;;;4.07;0.70;;;;;;;;;;4999059;28;21109;-68
2023/05/05 13:43:25;;;;;;;3.50;0.77;;;;;;;;;;5026791;28;20187;-66
2023/05/05 13:45:55;;;;;;;4.27;0.83;;;;;;;;;;5026895;28;20214;-67
2023/05/05 13:48:38;;;;;;;1.33;0.90;;;;;;;;;;5035234;28;20536;-67
2023/05/05 13:51:09;;;;;;;23.53;3.23;;;;;;;;;;5030306;28;20195;-66
2023/05/05 13:53:38;;;;;;;4.27;0.90;;;;;;;;;;5025114;28;20249;-71
2023/05/05 13:56:07;;;;;;;1.57;0.60;;;;;;;;;;5025625;28;20200;-72
2023/05/05 13:58:41;;;;;;;2.77;0.60;;;;;;;;;;5007651;28;20198;-74
2023/05/05 14:01:09;;;;;;;7.33;1.20;;;;;;;;;;5005918;28;20191;-72
2023/05/05 14:03:38;;;;;;;5.17;1.10;;;;;;;;;;5026374;28;20187;-74
2023/05/05 14:06:06;;;;;;;2.30;0.90;;;;;;;;;;5001628;28;20991;-72
2023/05/05 14:08:33;;;;;;;3.27;1.03;;;;;;;;;;5004203;28;20249;-73
2023/05/05 14:11:02;;;;;;;1.90;0.70;;;;;;;;;;5014843;28;20234;-72
2023/05/05 14:13:28;;;;;;;1.23;0.90;;;;;;;;;;5026338;28;20180;-72
2023/05/05 14:15:57;;;;;;;3.37;0.90;;;;;;;;;;5007784;28;20187;-72
2023/05/05 14:18:25;;;;;;;2.00;0.80;;;;;;;;;;5017207;28;20195;-74
2023/05/05 14:20:53;;;;;;;4.00;1.20;;;;;;;;;;5029433;28;20234;-72
2023/05/05 14:23:20;;;;;;;3.07;2.00;;;;;;;;;;5009782;28;20219;-71
2023/05/05 14:25:47;;;;;;;9.93;9.07;;;;;;;;;;5027579;28;20303;-69
2023/05/05 14:28:15;;;;;;;26.53;11.67;;;;;;;;;;5021724;28;20203;-69
2023/05/05 14:30:41;;;;;;;31.17;10.07;;;;;;;;;;5025005;28;20646;-71
2023/05/05 14:33:09;;;;;;;35.70;22.63;;;;;;;;;;5025222;28;20290;-69
2023/05/05 14:35:36;;;;;;;2.17;1.10;;;;;;;;;;5028909;28;20191;-68
2023/05/05 14:38:04;;;;;;;7.60;2.67;;;;;;;;;;5024537;28;20653;-70
2023/05/05 14:40:31;;;;;;;6.77;2.53;;;;;;;;;;4998562;28;20297;-69
2023/05/05 14:42:58;;;;;;;8.40;2.73;;;;;;;;;;5024233;28;20208;-72
2023/05/05 14:45:28;;;;;;;1.37;0.80;;;;;;;;;;5003610;28;20314;-69
2023/05/05 14:47:55;;;;;;;15.13;11.67;;;;;;;;;;5010741;28;20230;-71
2023/05/05 14:50:23;;;;;;;15.67;5.80;;;;;;;;;;5024637;28;20733;-68
2023/05/05 14:52:50;;;;;;;3.80;1.77;;;;;;;;;;5027622;28;20191;-70
2023/05/05 14:55:18;;;;;;;1.93;1.37;;;;;;;;;;5024546;28;20199;-69
2023/05/05 14:57:46;;;;;;;5.33;2.40;;;;;;;;;;5025104;28;20180;-67
2023/05/05 15:00:13;;;;;;;25.17;11.30;;;;;;;;;;5006719;28;20712;-69
2023/05/05 15:02:40;;;;;;;20.53;8.60;;;;;;;;;;5002407;28;20195;-68
2023/05/05 15:05:07;;;;;;;12.47;7.60;;;;;;;;;;5024676;28;20187;-70
2023/05/05 15:07:34;;;;;;;42.57;25.03;;;;;;;;;;5001076;28;20353;-70
2023/05/05 15:10:03;;;;;;;20.67;9.47;;;;;;;;;;5011478;28;20198;-70
2023/05/05 15:12:31;;;;;;;6.67;2.70;;;;;;;;;;5023432;28;20210;-69
2023/05/05 15:14:57;;;;;;;21.37;9.30;;;;;;;;;;5027171;28;20195;-70
2023/05/05 15:17:24;;;;;;;4.53;2.50;;;;;;;;;;5014876;28;20175;-74
2023/05/05 15:19:54;;;;;;;5.90;2.60;;;;;;;;;;5022394;28;20219;-72
2023/05/05 15:22:23;;;;;;;2.50;1.57;;;;;;;;;;5006889;28;20943;-70
2023/05/05 15:24:50;;;;;;;2.73;1.20;;;;;;;;;;5023647;28;20294;-73
2023/05/05 15:27:17;;;;;;;3.23;1.10;;;;;;;;;;5024412;28;20208;-70